createdAt,value
2022-12-06T00:03:02.640Z,101293.38
2022-12-06T00:08:08.492Z,101295.25
2022-12-06T00:13:12.322Z,101286.09
2022-12-06T00:18:16.031Z,101287.03
2022-12-06T00:23:21.484Z,101295.91
2022-12-06T00:28:25.231Z,101302.03
2022-12-06T00:33:29.575Z,101296.31
2022-12-06T00:38:35.497Z,101298.09
2022-12-06T00:43:40.068Z,101295.59
2022-12-06T00:48:43.912Z,101293.00
2022-12-06T00:53:49.786Z,101296.59
2022-12-06T00:58:53.662Z,101300.25
2022-12-06T01:03:59.276Z,101297.66
2022-12-06T01:09:07.480Z,101299.66
2022-12-06T01:14:11.079Z,101298.22
2022-12-06T01:19:14.614Z,101297.41
2022-12-06T01:24:20.432Z,101306.03
2022-12-06T01:29:24.016Z,101304.59
2022-12-06T01:34:27.584Z,101303.75
2022-12-06T01:39:32.960Z,101298.38
2022-12-06T01:44:46.035Z,101294.88
2022-12-06T01:49:55.010Z,101298.34
2022-12-06T01:55:01.303Z,101304.41
2022-12-06T02:00:06.560Z,101298.16
2022-12-06T02:05:10.598Z,101297.41
2022-12-06T02:10:15.836Z,101298.53
2022-12-06T02:15:20.946Z,101302.84
2022-12-06T02:20:33.591Z,101306.41
2022-12-06T02:26:15.176Z,101300.47
2022-12-06T02:31:27.866Z,101297.75
2022-12-06T02:36:38.698Z,101300.47
2022-12-06T02:41:46.352Z,101302.28
2022-12-06T02:46:56.324Z,101298.94
2022-12-06T02:52:00.103Z,101292.00
2022-12-06T02:57:03.716Z,101291.88
2022-12-06T03:02:12.395Z,101291.84
2022-12-06T03:07:31.269Z,101304.84
2022-12-06T03:12:40.598Z,101309.13
2022-12-06T03:17:51.571Z,101316.88
2022-12-06T03:23:00.697Z,101304.66
2022-12-06T03:28:06.432Z,101313.41
2022-12-06T03:33:13.548Z,101317.88
2022-12-06T03:38:24.212Z,101322.19
2022-12-06T03:43:27.918Z,101311.00
2022-12-06T03:48:36.650Z,101324.81
2022-12-06T03:53:48.971Z,101329.94
2022-12-06T03:58:52.651Z,101332.69
2022-12-06T04:03:57.896Z,101333.59
2022-12-06T04:09:01.487Z,101334.50
2022-12-06T04:14:05.057Z,101332.84
2022-12-06T04:19:10.288Z,101329.41
2022-12-06T04:24:13.842Z,101329.31
2022-12-06T04:29:17.391Z,101327.72
2022-12-06T04:34:23.595Z,101334.63
2022-12-06T04:39:26.823Z,101343.41
2022-12-06T04:44:30.377Z,101340.72
2022-12-06T04:49:36.443Z,101333.75
2022-12-06T04:54:40.240Z,101337.97
2022-12-06T04:59:45.355Z,101328.63
2022-12-06T05:04:50.587Z,101322.56
2022-12-06T05:09:54.185Z,101326.09
2022-12-06T05:14:57.724Z,101318.31
2022-12-06T05:20:02.998Z,101316.66
2022-12-06T05:25:06.965Z,101307.91
2022-12-06T05:30:12.089Z,101300.94
2022-12-06T05:35:17.443Z,101301.88
2022-12-06T05:40:20.995Z,101291.41
2022-12-06T05:45:24.621Z,101295.78
2022-12-06T05:50:30.203Z,101308.84
2022-12-06T05:55:33.861Z,101311.44
2022-12-06T06:00:37.929Z,101318.75
2022-12-06T06:05:48.942Z,101322.22
2022-12-06T06:10:52.626Z,101317.53
2022-12-06T06:15:56.220Z,101317.66
2022-12-06T06:21:01.845Z,101317.88
2022-12-06T06:26:08.950Z,101314.44
2022-12-06T06:31:12.514Z,101300.53
2022-12-06T06:36:17.790Z,101304.09
2022-12-06T06:41:21.404Z,101293.66
2022-12-06T06:46:25.028Z,101310.09
2022-12-06T06:51:32.285Z,101307.56
2022-12-06T06:56:35.942Z,101304.03
2022-12-06T07:01:39.556Z,101297.03
2022-12-06T07:06:45.155Z,101293.47
2022-12-06T07:11:48.684Z,101297.53
2022-12-06T07:16:52.297Z,101303.81
2022-12-06T07:21:57.579Z,101320.28
2022-12-06T07:27:01.145Z,101319.38
2022-12-06T07:32:04.757Z,101310.69
2022-12-06T07:37:09.945Z,101315.66
2022-12-06T07:42:13.548Z,101326.22
2022-12-06T07:47:17.511Z,101320.94
2022-12-06T07:52:23.568Z,101326.13
2022-12-06T07:57:27.177Z,101328.81
2022-12-06T08:02:30.742Z,101325.38
2022-12-06T08:07:35.989Z,101315.78
2022-12-06T08:12:39.587Z,101307.06
2022-12-06T08:17:43.542Z,101290.56
2022-12-06T08:22:48.755Z,101293.19
2022-12-06T08:27:52.335Z,101300.13
2022-12-06T08:32:55.876Z,101292.41
2022-12-06T08:38:01.099Z,101300.34
2022-12-06T08:43:04.712Z,101308.84
2022-12-06T08:48:08.332Z,101304.41
2022-12-06T08:53:13.624Z,101306.13
2022-12-06T08:58:17.138Z,101307.00
2022-12-06T09:03:20.713Z,101300.06
2022-12-06T09:08:26.006Z,101295.69
2022-12-06T09:13:29.816Z,101294.94
2022-12-06T09:18:33.352Z,101290.56
2022-12-06T09:23:39.418Z,101288.75
2022-12-06T09:28:44.161Z,101288.72
2022-12-06T09:33:49.311Z,101290.47
2022-12-06T09:38:58.757Z,101282.75
2022-12-06T09:44:15.787Z,101281.75
2022-12-06T09:49:31.676Z,101281.03
2022-12-06T09:54:52.631Z,101280.13
2022-12-06T10:00:09.854Z,101295.69
2022-12-06T10:05:42.146Z,101300.13
2022-12-06T10:10:57.626Z,101300.06
2022-12-06T10:16:13.082Z,101304.41
2022-12-06T10:21:23.844Z,101304.41
2022-12-06T10:26:39.949Z,101304.41
2022-12-06T10:31:55.893Z,101312.97
2022-12-06T10:37:06.221Z,101310.34
2022-12-06T10:42:19.223Z,101303.41
2022-12-06T10:47:28.176Z,101315.56
2022-12-06T10:52:39.481Z,101314.63
2022-12-06T10:57:49.472Z,101315.50
2022-12-06T11:03:02.003Z,101316.38
2022-12-06T11:08:12.210Z,101314.63
2022-12-06T11:13:22.163Z,101309.41
2022-12-06T11:18:29.429Z,101310.38
2022-12-06T11:23:41.068Z,101299.06
2022-12-06T11:28:53.610Z,101303.53
2022-12-06T11:33:58.911Z,101300.13
2022-12-06T11:39:03.064Z,101302.66
2022-12-06T11:44:14.272Z,101303.50
2022-12-06T11:49:28.265Z,101298.41
2022-12-06T11:54:39.107Z,101297.41
2022-12-06T12:00:10.814Z,101289.47
2022-12-06T12:05:21.518Z,101296.44
2022-12-06T12:10:32.893Z,101295.66
2022-12-06T12:15:38.796Z,101295.59
2022-12-06T12:20:47.195Z,101285.22
2022-12-06T12:26:01.195Z,101285.16
2022-12-06T12:31:17.580Z,101283.59
2022-12-06T12:36:26.478Z,101282.78
2022-12-06T12:41:34.735Z,101294.94
2022-12-06T12:46:44.404Z,101301.91
2022-12-06T12:51:48.169Z,101300.25
2022-12-06T12:56:52.649Z,101312.50
2022-12-06T13:02:03.211Z,101306.44
2022-12-06T13:07:13.131Z,101305.66
2022-12-06T13:12:24.095Z,101314.34
2022-12-06T13:17:32.735Z,101317.81
2022-12-06T13:22:38.335Z,101323.03
2022-12-06T13:27:46.288Z,101326.66
2022-12-06T13:32:56.075Z,101316.41
2022-12-06T13:38:01.560Z,101325.91
2022-12-06T13:43:07.332Z,101322.44
2022-12-06T13:48:48.430Z,101335.59
2022-12-06T13:54:36.136Z,101337.34
2022-12-06T13:59:42.566Z,101346.09
2022-12-06T14:04:47.855Z,101346.84
2022-12-06T14:09:51.576Z,101349.28
2022-12-06T14:15:00.095Z,101359.72
2022-12-06T14:20:20.171Z,101365.78
2022-12-06T14:25:26.005Z,101364.13
2022-12-06T14:30:29.752Z,101374.63
2022-12-06T14:35:36.430Z,101369.56
2022-12-06T14:40:47.175Z,101378.13
2022-12-06T14:45:53.126Z,101377.03
2022-12-06T14:51:03.633Z,101388.19
2022-12-06T14:56:20.559Z,101398.66
2022-12-06T15:01:26.432Z,101404.72
2022-12-06T15:06:32.671Z,101410.84
2022-12-06T15:11:36.194Z,101419.47
2022-12-06T15:16:40.312Z,101420.38
2022-12-06T15:21:45.616Z,101430.03
2022-12-06T15:26:49.257Z,101430.00
2022-12-06T15:31:54.365Z,101439.50
2022-12-06T15:37:38.040Z,101444.75
2022-12-06T15:42:25.215Z,101444.75
2022-12-06T15:47:28.880Z,101449.97
2022-12-06T15:52:34.198Z,101460.38
2022-12-06T15:57:37.824Z,101457.78
2022-12-06T16:02:41.465Z,101458.50
2022-12-06T16:07:46.830Z,101454.88
2022-12-06T16:12:50.489Z,101473.03
2022-12-06T16:17:54.333Z,101483.38
2022-12-06T16:23:02.689Z,101491.09
2022-12-06T16:28:06.444Z,101493.66
2022-12-06T16:33:15.823Z,101492.00
2022-12-06T16:38:21.546Z,101496.44
2022-12-06T16:43:25.192Z,101504.16
2022-12-06T16:48:28.871Z,101509.31
2022-12-06T16:53:34.148Z,101513.59
2022-12-06T16:58:37.828Z,101529.81
2022-12-06T17:03:41.423Z,101532.63
2022-12-06T17:08:46.859Z,101540.72
2022-12-06T17:13:50.459Z,101551.13
2022-12-06T17:18:54.072Z,101554.66
2022-12-06T17:24:00.974Z,101550.22
2022-12-06T17:29:04.917Z,101549.25
2022-12-06T17:34:08.835Z,101555.22
2022-12-06T17:39:16.722Z,101558.63
2022-12-06T17:44:20.702Z,101569.06
2022-12-06T17:49:26.244Z,101576.81
2022-12-06T17:54:31.587Z,101586.09
2022-12-06T17:59:35.272Z,101584.38
2022-12-06T18:04:39.133Z,101593.81
2022-12-06T18:09:44.748Z,101591.97
2022-12-06T18:14:48.353Z,101592.75
2022-12-06T18:19:51.982Z,101601.47
2022-12-06T18:24:57.251Z,101605.84
2022-12-06T18:30:01.102Z,101602.28
2022-12-06T18:35:05.653Z,101597.47
2022-12-06T18:40:11.515Z,101600.94
2022-12-06T18:45:15.216Z,101595.72
2022-12-06T18:50:19.079Z,101604.28
2022-12-06T18:55:24.442Z,101593.44
2022-12-06T19:00:28.314Z,101589.78
2022-12-06T19:06:00.933Z,101583.66
2022-12-06T19:11:02.003Z,101593.41
2022-12-06T19:16:06.127Z,101587.72
2022-12-06T19:21:09.734Z,101571.34
2022-12-06T19:26:15.126Z,101574.63
2022-12-06T19:31:19.649Z,101577.25
2022-12-06T19:36:25.263Z,101581.66
2022-12-06T19:41:31.176Z,101574.19
2022-12-06T19:46:34.869Z,101569.69
2022-12-06T19:51:39.655Z,101560.97
2022-12-06T19:56:45.020Z,101561.91
2022-12-06T20:01:49.475Z,101555.88
2022-12-06T20:06:54.325Z,101547.03
2022-12-06T20:12:01.389Z,101548.63
2022-12-06T20:17:06.263Z,101539.69
2022-12-06T20:22:09.946Z,101548.66
2022-12-06T20:27:15.229Z,101544.28
2022-12-06T20:32:18.846Z,101544.31
2022-12-06T20:37:22.496Z,101537.19
2022-12-06T20:42:27.894Z,101546.03
2022-12-06T20:47:31.497Z,101534.69
2022-12-06T20:52:35.116Z,101535.72
2022-12-06T20:57:40.683Z,101536.81
2022-12-06T21:02:44.358Z,101532.31
2022-12-06T21:07:48.068Z,101538.41
2022-12-06T21:12:53.356Z,101539.72
2022-12-06T21:17:56.997Z,101529.00
2022-12-06T21:23:00.633Z,101529.19
2022-12-06T21:28:06.952Z,101529.34
2022-12-06T21:33:10.530Z,101534.50
2022-12-06T21:38:14.956Z,101534.25
2022-12-06T21:43:21.155Z,101526.00
2022-12-06T21:48:24.754Z,101534.75
2022-12-06T21:53:28.393Z,101527.72
2022-12-06T21:58:33.635Z,101526.38
2022-12-06T22:03:37.365Z,101536.16
2022-12-06T22:08:42.022Z,101530.91
2022-12-06T22:13:47.706Z,101530.25
2022-12-06T22:18:51.281Z,101530.22
2022-12-06T22:23:55.863Z,101529.44
2022-12-06T22:29:01.583Z,101524.41
2022-12-06T22:34:05.406Z,101530.81
2022-12-06T22:39:09.061Z,101529.06
2022-12-06T22:44:14.327Z,101531.69
2022-12-06T22:49:18.663Z,101533.34
2022-12-06T22:54:22.330Z,101527.19
2022-12-06T22:59:27.618Z,101524.41
2022-12-06T23:04:31.268Z,101522.66
2022-12-06T23:09:34.871Z,101515.75
2022-12-06T23:14:40.186Z,101512.25
2022-12-06T23:19:43.810Z,101512.38
2022-12-06T23:24:49.560Z,101516.75
2022-12-06T23:29:54.855Z,101519.66
2022-12-06T23:34:58.491Z,101518.91
2022-12-06T23:40:02.269Z,101508.66
2022-12-06T23:45:08.854Z,101510.78
2022-12-06T23:50:12.888Z,101510.03
2022-12-06T23:55:16.624Z,101510.94
